createdAt,value
2019-01-19T00:00:29.044Z,-3.20
2019-01-19T00:03:57.494Z,-3.16
2019-01-19T00:07:11.902Z,-3.20
2019-01-19T00:10:57.279Z,-3.55
2019-01-19T00:14:22.519Z,-3.40
2019-01-19T00:17:57.596Z,-3.28
2019-01-19T00:21:25.164Z,-3.29
2019-01-19T00:24:42.694Z,-3.37
2019-01-19T00:27:52.221Z,-3.37
2019-01-19T00:31:15.212Z,-3.34
2019-01-19T00:34:21.825Z,-3.33
2019-01-19T00:37:23.174Z,-3.38
2019-01-19T00:40:43.160Z,-3.25
2019-01-19T00:43:32.151Z,-3.34
2019-01-19T00:46:46.840Z,-3.32
2019-01-19T00:49:36.814Z,-3.22
2019-01-19T00:53:00.143Z,-3.23
2019-01-19T00:56:21.498Z,-3.31
2019-01-19T00:59:07.600Z,-3.27
2019-01-19T01:02:13.340Z,-3.29
2019-01-19T01:05:05.523Z,-3.27
2019-01-19T01:08:02.351Z,-3.18
2019-01-19T01:10:52.894Z,-3.28
2019-01-19T01:14:37.327Z,-3.29
2019-01-19T01:17:42.304Z,-3.32
2019-01-19T01:21:30.159Z,-3.31
2019-01-19T01:25:06.960Z,-3.36
2019-01-19T01:28:16.101Z,-3.24
2019-01-19T01:31:34.850Z,-3.57
2019-01-19T01:35:13.240Z,-3.46
2019-01-19T01:38:20.981Z,-3.63
2019-01-19T01:41:29.785Z,-3.59
2019-01-19T01:44:40.950Z,-3.58
2019-01-19T01:48:09.657Z,-3.64
2019-01-19T01:51:26.011Z,-3.65
2019-01-19T01:54:39.410Z,-3.78
2019-01-19T01:57:26.297Z,-3.85
2019-01-19T02:00:48.106Z,-3.75
2019-01-19T02:04:14.139Z,-3.88
2019-01-19T02:07:48.327Z,-3.91
2019-01-19T02:11:05.949Z,-3.98
2019-01-19T02:14:38.400Z,-4.06
2019-01-19T02:18:13.685Z,-4.14
2019-01-19T02:21:07.434Z,-4.12
2019-01-19T02:24:40.043Z,-4.05
2019-01-19T02:27:56.208Z,-4.16
2019-01-19T02:31:07.899Z,-4.27
2019-01-19T02:34:10.989Z,-4.38
2019-01-19T02:37:44.057Z,-4.27
2019-01-19T02:41:07.421Z,-4.31
2019-01-19T02:44:13.867Z,-4.31
2019-01-19T02:47:13.695Z,-4.38
2019-01-19T02:50:35.938Z,-4.34
2019-01-19T02:54:15.706Z,-4.34
2019-01-19T02:57:47.970Z,-4.43
2019-01-19T03:01:14.786Z,-4.37
2019-01-19T03:04:48.740Z,-4.43
2019-01-19T03:08:09.598Z,-4.41
2019-01-19T03:11:09.261Z,-4.37
2019-01-19T03:14:53.696Z,-4.24
2019-01-19T03:18:28.545Z,-4.29
2019-01-19T03:22:03.067Z,-4.37
2019-01-19T03:25:45.046Z,-4.49
2019-01-19T03:29:14.335Z,-4.46
2019-01-19T03:32:46.855Z,-4.36
2019-01-19T03:35:50.900Z,-4.31
2019-01-19T03:39:16.226Z,-4.37
2019-01-19T03:42:46.416Z,-4.34
2019-01-19T03:45:44.518Z,-4.52
2019-01-19T03:49:04.284Z,-4.44
2019-01-19T03:51:59.574Z,-4.47
2019-01-19T03:55:05.972Z,-4.44
2019-01-19T03:58:29.459Z,-4.51
2019-01-19T04:01:41.230Z,-4.45
2019-01-19T04:04:46.814Z,-4.54
2019-01-19T04:08:32.507Z,-4.55
2019-01-19T04:11:50.003Z,-4.60
2019-01-19T04:15:34.179Z,-4.50
2019-01-19T04:18:17.901Z,-4.55
2019-01-19T04:21:45.101Z,-4.61
2019-01-19T04:25:05.456Z,-4.66
2019-01-19T04:27:35.661Z,-4.62
2019-01-19T04:30:08.707Z,-4.63
2019-01-19T04:32:39.984Z,-4.53
2019-01-19T04:35:10.492Z,-4.60
2019-01-19T04:37:42.334Z,-4.64
2019-01-19T04:40:14.469Z,-4.57
2019-01-19T04:42:46.471Z,-4.54
2019-01-19T04:45:17.027Z,-4.64
2019-01-19T04:47:47.326Z,-4.68
2019-01-19T04:50:18.310Z,-4.79
2019-01-19T04:52:48.764Z,-4.83
2019-01-19T04:55:19.065Z,-4.70
2019-01-19T04:57:49.523Z,-4.82
2019-01-19T05:00:22.134Z,-4.73
2019-01-19T05:02:52.500Z,-4.77
2019-01-19T05:05:22.951Z,-4.79
2019-01-19T05:07:53.321Z,-4.85
2019-01-19T05:10:23.557Z,-4.78
2019-01-19T05:12:54.212Z,-4.74
2019-01-19T05:15:24.886Z,-4.79
2019-01-19T05:17:55.512Z,-4.84
2019-01-19T05:20:25.988Z,-4.82
2019-01-19T05:22:56.359Z,-4.88
2019-01-19T05:25:26.922Z,-4.89
2019-01-19T05:27:57.457Z,-4.94
2019-01-19T05:30:27.947Z,-4.88
2019-01-19T05:32:58.393Z,-4.97
2019-01-19T05:35:28.770Z,-5.02
2019-01-19T05:37:59.251Z,-5.11
2019-01-19T05:40:29.685Z,-5.13
2019-01-19T05:43:00.102Z,-5.21
2019-01-19T05:45:30.451Z,-5.18
2019-01-19T05:48:00.822Z,-5.19
2019-01-19T05:50:31.238Z,-5.16
2019-01-19T05:53:01.696Z,-5.17
2019-01-19T05:55:32.025Z,-5.16
2019-01-19T05:58:02.465Z,-5.10
2019-01-19T06:00:36.873Z,-5.20
2019-01-19T06:03:08.006Z,-5.22
2019-01-19T06:05:40.317Z,-5.20
2019-01-19T06:08:10.780Z,-5.16
2019-01-19T06:10:41.404Z,-5.19
2019-01-19T06:13:11.916Z,-5.19
2019-01-19T06:15:42.318Z,-5.23
2019-01-19T06:18:12.775Z,-5.21
2019-01-19T06:20:43.108Z,-5.29
2019-01-19T06:23:13.601Z,-5.31
2019-01-19T06:25:43.942Z,-5.36
2019-01-19T06:28:14.329Z,-5.25
2019-01-19T06:30:44.651Z,-5.38
2019-01-19T06:33:15.087Z,-5.40
2019-01-19T06:35:45.463Z,-5.32
2019-01-19T06:38:15.934Z,-5.25
2019-01-19T06:40:46.425Z,-5.18
2019-01-19T06:43:16.722Z,-5.25
2019-01-19T06:45:47.291Z,-5.26
2019-01-19T06:48:17.641Z,-5.33
2019-01-19T06:50:47.924Z,-5.29
2019-01-19T06:53:18.328Z,-5.37
2019-01-19T06:55:48.664Z,-5.27
2019-01-19T06:58:19.086Z,-5.23
2019-01-19T07:00:49.506Z,-5.19
2019-01-19T07:03:19.993Z,-5.22
2019-01-19T07:05:50.417Z,-5.24
2019-01-19T07:08:20.865Z,-5.44
2019-01-19T07:10:51.171Z,-5.31
2019-01-19T07:13:21.622Z,-5.18
2019-01-19T07:15:52.048Z,-5.30
2019-01-19T07:18:22.615Z,-5.26
2019-01-19T07:20:53.027Z,-5.21
2019-01-19T07:23:23.478Z,-5.30
2019-01-19T07:25:53.820Z,-5.29
2019-01-19T07:28:24.294Z,-5.32
2019-01-19T07:30:54.760Z,-5.29
2019-01-19T07:33:25.317Z,-5.27
2019-01-19T07:35:55.664Z,-5.23
2019-01-19T07:38:26.204Z,-5.14
2019-01-19T07:40:57.553Z,-5.04
2019-01-19T07:43:28.591Z,-5.00
2019-01-19T07:45:59.341Z,-4.93
2019-01-19T07:48:29.884Z,-4.81
2019-01-19T07:51:00.300Z,-4.81
2019-01-19T07:53:30.750Z,-4.73
2019-01-19T07:56:01.213Z,-4.61
2019-01-19T07:58:32.821Z,-4.72
2019-01-19T08:01:03.294Z,-4.73
2019-01-19T08:03:33.837Z,-4.65
2019-01-19T08:06:04.275Z,-4.59
2019-01-19T08:08:34.698Z,-4.41
2019-01-19T08:11:05.245Z,-4.52
2019-01-19T08:13:35.779Z,-4.48
2019-01-19T08:16:06.107Z,-4.41
2019-01-19T08:18:36.618Z,-4.40
2019-01-19T08:21:07.231Z,-4.30
2019-01-19T08:23:37.581Z,-4.25
2019-01-19T08:26:08.336Z,-4.14
2019-01-19T08:28:38.748Z,-4.01
2019-01-19T08:31:09.131Z,-4.06
2019-01-19T08:33:39.546Z,-3.91
2019-01-19T08:36:10.851Z,-3.90
2019-01-19T08:38:41.276Z,-3.82
2019-01-19T08:41:11.690Z,-3.85
2019-01-19T08:43:46.731Z,-3.76
2019-01-19T08:46:17.251Z,-3.67
2019-01-19T08:48:47.761Z,-3.72
2019-01-19T08:51:18.219Z,-3.74
2019-01-19T08:53:48.671Z,0.38
2019-01-19T08:56:19.051Z,-0.84
2019-01-19T08:58:49.444Z,-2.35
2019-01-19T09:01:19.905Z,-2.64
2019-01-19T09:03:50.318Z,-2.83
2019-01-19T09:06:20.765Z,-2.92
2019-01-19T09:08:51.175Z,-2.83
2019-01-19T09:11:21.595Z,-2.70
2019-01-19T09:13:51.919Z,-2.63
2019-01-19T09:16:23.724Z,-2.69
2019-01-19T09:18:54.097Z,-2.63
2019-01-19T09:21:24.528Z,-2.71
2019-01-19T09:24:19.703Z,-2.60
2019-01-19T09:26:50.106Z,-2.64
2019-01-19T09:29:20.510Z,-2.73
2019-01-19T09:31:50.987Z,-2.72
2019-01-19T09:34:21.489Z,-2.72
2019-01-19T09:36:51.871Z,-2.68
2019-01-19T09:39:22.280Z,-2.41
2019-01-19T09:41:52.717Z,-2.26
2019-01-19T09:44:23.235Z,-2.12
2019-01-19T09:46:53.640Z,-2.08
2019-01-19T09:49:25.048Z,-1.86
2019-01-19T09:51:55.578Z,-1.70
2019-01-19T09:54:25.931Z,-1.63
2019-01-19T09:56:56.327Z,-1.63
2019-01-19T09:59:26.653Z,-1.46
2019-01-19T10:01:57.098Z,-1.78
2019-01-19T10:04:27.422Z,-1.59
2019-01-19T10:06:57.823Z,-1.59
2019-01-19T10:09:28.212Z,-1.59
2019-01-19T10:11:58.553Z,-1.43
2019-01-19T10:14:28.916Z,-1.43
2019-01-19T10:16:59.192Z,-1.55
2019-01-19T10:19:29.573Z,-1.48
2019-01-19T10:21:59.908Z,-1.31
2019-01-19T10:24:30.298Z,-1.44
2019-01-19T10:27:00.866Z,-1.39
2019-01-19T10:29:31.331Z,-1.66
2019-01-19T10:32:01.701Z,-1.48
2019-01-19T10:34:32.171Z,-1.10
2019-01-19T10:37:02.607Z,-1.35
2019-01-19T10:39:32.862Z,-1.03
2019-01-19T10:42:03.413Z,-0.94
2019-01-19T10:44:33.918Z,-1.28
2019-01-19T10:47:04.328Z,-1.01
2019-01-19T10:49:37.912Z,-0.87
2019-01-19T10:52:08.339Z,-1.01
2019-01-19T10:54:38.769Z,-1.11
2019-01-19T10:57:09.069Z,-1.02
2019-01-19T10:59:39.520Z,-0.96
2019-01-19T11:02:09.925Z,-0.94
2019-01-19T11:04:40.395Z,-1.03
2019-01-19T11:07:10.775Z,-1.09
2019-01-19T11:09:41.583Z,-1.15
2019-01-19T11:12:12.085Z,-1.04
2019-01-19T11:14:42.604Z,-1.12
2019-01-19T11:17:13.065Z,-0.98
2019-01-19T11:19:43.528Z,-1.12
2019-01-19T11:22:13.919Z,-1.17
2019-01-19T11:24:44.279Z,-0.96
2019-01-19T11:27:14.674Z,-1.05
2019-01-19T11:29:45.059Z,-1.23
2019-01-19T11:32:15.561Z,-1.23
2019-01-19T11:34:46.005Z,-0.96
2019-01-19T11:37:16.489Z,-0.96
2019-01-19T11:39:46.969Z,-1.42
2019-01-19T11:42:17.370Z,-1.25
2019-01-19T11:44:47.827Z,-1.14
2019-01-19T11:47:18.305Z,-1.18
2019-01-19T11:49:48.717Z,-1.18
2019-01-19T11:52:19.075Z,-1.44
2019-01-19T11:54:49.797Z,-1.38
2019-01-19T11:57:20.079Z,-1.41
2019-01-19T11:59:50.372Z,-1.29
2019-01-19T12:02:20.698Z,-1.38
2019-01-19T12:04:50.933Z,-1.48
2019-01-19T12:07:21.415Z,-1.39
2019-01-19T12:09:52.209Z,-1.20
2019-01-19T12:12:22.623Z,-1.28
2019-01-19T12:14:53.128Z,-1.33
2019-01-19T12:17:23.518Z,-1.31
2019-01-19T12:19:53.993Z,-1.16
2019-01-19T12:22:24.459Z,-1.37
2019-01-19T12:24:54.886Z,-1.31
2019-01-19T12:27:25.332Z,-1.50
2019-01-19T12:29:55.748Z,-1.46
2019-01-19T12:32:27.888Z,-1.48
2019-01-19T12:34:58.327Z,-1.41
2019-01-19T12:37:28.757Z,-1.29
2019-01-19T12:39:59.169Z,-1.35
2019-01-19T12:42:29.895Z,-1.31
2019-01-19T12:45:00.445Z,-1.31
2019-01-19T12:47:30.904Z,-1.08
2019-01-19T12:50:01.289Z,-1.31
2019-01-19T12:52:31.625Z,-1.54
2019-01-19T12:55:01.958Z,-1.33
2019-01-19T12:57:32.389Z,-0.91
2019-01-19T13:00:02.800Z,-1.36
2019-01-19T13:02:33.316Z,-1.58
2019-01-19T13:05:03.755Z,-1.36
2019-01-19T13:07:34.255Z,-1.28
2019-01-19T13:10:28.167Z,-1.35
2019-01-19T13:13:08.252Z,-1.17
2019-01-19T13:16:26.568Z,-1.38
2019-01-19T13:19:29.971Z,-1.46
2019-01-19T13:22:57.502Z,-1.26
2019-01-19T13:26:14.166Z,-1.50
2019-01-19T13:29:46.618Z,-1.41
2019-01-19T13:32:36.673Z,-0.30
2019-01-19T13:36:01.639Z,-1.02
2019-01-19T13:39:10.568Z,-1.14
2019-01-19T13:42:43.483Z,-1.05
2019-01-19T13:45:55.971Z,-1.14
2019-01-19T13:49:20.835Z,-1.06
2019-01-19T13:52:29.200Z,-1.25
2019-01-19T13:56:01.263Z,-1.08
2019-01-19T13:59:05.428Z,-1.19
2019-01-19T14:02:29.147Z,1.01
2019-01-19T14:05:32.028Z,-1.13
2019-01-19T14:08:49.212Z,-1.15
2019-01-19T14:12:12.635Z,-1.24
2019-01-19T14:15:25.718Z,-1.44
2019-01-19T14:18:38.818Z,-1.41
2019-01-19T14:22:23.124Z,-1.35
2019-01-19T14:25:51.471Z,-1.45
2019-01-19T14:29:28.407Z,-1.24
2019-01-19T14:33:10.831Z,-1.52
2019-01-19T14:36:18.469Z,-1.63
2019-01-19T14:39:37.804Z,-1.71
2019-01-19T14:43:21.969Z,-1.34
2019-01-19T14:47:14.313Z,-1.52
2019-01-19T14:50:50.156Z,-1.47
2019-01-19T14:54:35.722Z,-1.48
2019-01-19T14:58:13.311Z,-1.34
2019-01-19T15:00:57.189Z,-1.43
2019-01-19T15:04:28.728Z,-1.62
2019-01-19T15:07:51.763Z,-1.72
2019-01-19T15:11:25.501Z,-1.68
2019-01-19T15:14:51.422Z,-1.71
2019-01-19T15:18:12.807Z,-1.70
2019-01-19T15:21:19.572Z,-1.72
2019-01-19T15:24:18.571Z,-1.66
2019-01-19T15:27:20.229Z,-1.58
2019-01-19T15:30:14.616Z,-1.76
2019-01-19T15:33:48.627Z,-1.85
2019-01-19T15:36:53.364Z,-2.00
2019-01-19T15:40:12.115Z,-2.00
2019-01-19T15:43:39.982Z,-2.09
2019-01-19T15:47:05.608Z,-2.06
2019-01-19T15:50:21.865Z,-2.14
2019-01-19T15:53:07.131Z,-2.28
2019-01-19T15:56:24.041Z,-2.26
2019-01-19T15:59:45.709Z,-2.26
2019-01-19T16:02:51.129Z,-2.39
2019-01-19T16:06:18.714Z,-2.36
2019-01-19T16:09:26.281Z,-2.37
2019-01-19T16:12:38.674Z,-2.36
2019-01-19T16:16:23.265Z,-2.24
2019-01-19T16:19:39.932Z,-2.23
2019-01-19T16:22:57.510Z,-2.42
2019-01-19T16:26:46.349Z,-2.40
2019-01-19T16:30:13.979Z,-2.54
2019-01-19T16:33:35.697Z,-2.65
2019-01-19T16:36:52.920Z,-0.65
2019-01-19T16:40:04.139Z,-1.94
2019-01-19T16:43:36.434Z,-2.65
2019-01-19T16:46:54.669Z,-2.67
2019-01-19T16:49:59.124Z,-2.65
2019-01-19T16:53:06.403Z,-2.94
2019-01-19T16:56:36.247Z,-2.75
2019-01-19T16:59:52.775Z,-3.07
2019-01-19T17:02:50.848Z,-3.24
2019-01-19T17:06:17.660Z,-3.51
2019-01-19T17:09:45.628Z,-3.57
2019-01-19T17:13:40.479Z,-3.71
2019-01-19T17:16:49.918Z,-3.66
2019-01-19T17:19:55.071Z,-3.82
2019-01-19T17:23:43.771Z,-3.87
2019-01-19T17:27:25.847Z,-3.94
2019-01-19T17:30:45.102Z,-3.97
2019-01-19T17:33:30.285Z,-3.96
2019-01-19T17:37:00.987Z,-4.06
2019-01-19T17:40:43.128Z,-4.11
2019-01-19T17:44:06.624Z,-4.15
2019-01-19T17:47:17.688Z,-4.15
2019-01-19T17:51:12.598Z,-4.18
2019-01-19T17:54:48.851Z,-4.28
2019-01-19T17:58:18.553Z,-4.32
2019-01-19T18:01:29.935Z,-4.28
2019-01-19T18:04:30.715Z,-4.30
2019-01-19T18:07:30.299Z,-4.41
2019-01-19T18:11:14.418Z,-4.55
2019-01-19T18:14:58.206Z,-4.46
2019-01-19T18:18:30.536Z,-4.41
2019-01-19T18:21:35.848Z,-4.25
2019-01-19T18:25:10.984Z,-4.30
2019-01-19T18:28:45.052Z,-4.35
2019-01-19T18:32:07.658Z,-4.41
2019-01-19T18:35:29.388Z,-4.41
2019-01-19T18:38:36.235Z,-4.39
2019-01-19T18:41:49.532Z,-4.48
2019-01-19T18:45:18.765Z,-4.62
2019-01-19T18:48:17.163Z,-4.58
2019-01-19T18:51:27.344Z,-4.58
2019-01-19T18:54:48.635Z,-4.66
2019-01-19T18:58:37.809Z,-4.70
2019-01-19T19:01:36.649Z,-4.71
2019-01-19T19:05:10.503Z,-4.73
2019-01-19T19:08:28.597Z,-4.72
2019-01-19T19:11:51.199Z,-4.69
2019-01-19T19:15:18.261Z,-4.74
2019-01-19T19:18:33.461Z,-4.76
2019-01-19T19:21:46.282Z,-4.79
2019-01-19T19:25:17.106Z,-4.64
2019-01-19T19:28:47.280Z,-4.68
2019-01-19T19:32:04.089Z,-4.67
2019-01-19T19:35:07.503Z,-4.77
2019-01-19T19:38:09.027Z,-4.71
2019-01-19T19:41:25.112Z,-4.77
2019-01-19T19:44:46.862Z,-4.78
2019-01-19T19:48:04.534Z,-4.77
2019-01-19T19:51:34.624Z,-4.81
2019-01-19T19:54:05.051Z,-4.72
2019-01-19T19:56:33.140Z,-4.77
2019-01-19T19:59:03.817Z,-4.79
2019-01-19T20:01:34.529Z,-4.80
2019-01-19T20:04:05.001Z,-4.85
2019-01-19T20:06:35.549Z,-4.89
2019-01-19T20:09:10.419Z,-4.92
2019-01-19T20:11:41.073Z,-4.96
2019-01-19T20:14:11.684Z,-5.02
2019-01-19T20:16:43.339Z,-5.07
2019-01-19T20:19:14.219Z,-4.97
2019-01-19T20:21:44.796Z,-4.90
2019-01-19T20:24:15.212Z,-4.98
2019-01-19T20:26:46.139Z,-4.90
2019-01-19T20:29:16.854Z,-4.91
2019-01-19T20:31:47.317Z,-4.94
2019-01-19T20:34:17.792Z,-5.01
2019-01-19T20:36:48.185Z,-5.06
2019-01-19T20:39:27.172Z,-5.11
2019-01-19T20:42:16.783Z,-5.00
2019-01-19T20:44:48.204Z,-5.16
2019-01-19T20:47:18.911Z,-5.06
2019-01-19T20:49:50.524Z,-5.14
2019-01-19T20:52:22.149Z,-5.11
2019-01-19T20:54:52.727Z,-5.18
2019-01-19T20:57:23.878Z,-5.10
2019-01-19T20:59:54.532Z,-5.12
2019-01-19T21:02:25.319Z,-5.15
2019-01-19T21:04:56.007Z,-5.13
2019-01-19T21:07:26.714Z,-5.12
2019-01-19T21:09:57.204Z,-5.30
2019-01-19T21:12:28.146Z,-5.23
2019-01-19T21:14:59.606Z,-5.32
2019-01-19T21:17:30.307Z,-5.16
2019-01-19T21:20:00.670Z,-5.20
2019-01-19T21:22:31.170Z,-5.19
2019-01-19T21:25:01.596Z,-5.16
2019-01-19T21:27:32.007Z,-5.29
2019-01-19T21:30:06.731Z,-5.36
2019-01-19T21:32:37.145Z,-5.26
2019-01-19T21:35:09.364Z,-5.43
2019-01-19T21:37:39.949Z,-5.38
2019-01-19T21:40:12.383Z,-5.35
2019-01-19T21:42:42.859Z,-5.36
2019-01-19T21:45:17.070Z,-5.49
2019-01-19T21:47:47.438Z,-5.41
2019-01-19T21:50:18.111Z,-5.50
2019-01-19T21:52:48.528Z,-5.39
2019-01-19T21:55:19.102Z,-5.46
2019-01-19T21:57:49.677Z,-5.44
2019-01-19T22:00:21.891Z,-5.49
2019-01-19T22:02:52.794Z,-5.56
2019-01-19T22:05:23.520Z,-5.53
2019-01-19T22:07:54.143Z,-5.51
2019-01-19T22:10:24.917Z,-5.61
2019-01-19T22:12:55.370Z,-5.59
2019-01-19T22:15:25.920Z,-5.60
2019-01-19T22:17:56.459Z,-5.57
2019-01-19T22:20:30.293Z,-5.52
2019-01-19T22:23:00.813Z,-5.58
2019-01-19T22:25:31.403Z,-5.58
2019-01-19T22:28:01.885Z,-5.62
2019-01-19T22:30:32.783Z,-5.61
2019-01-19T22:33:04.224Z,-5.65
2019-01-19T22:35:35.179Z,-5.70
2019-01-19T22:38:05.777Z,-5.71
2019-01-19T22:40:36.346Z,-5.84
2019-01-19T22:43:10.720Z,-5.82
2019-01-19T22:45:41.380Z,-5.83
2019-01-19T22:48:11.947Z,-5.81
2019-01-19T22:50:42.432Z,-5.80
2019-01-19T22:53:12.902Z,-5.78
2019-01-19T22:55:43.393Z,-5.75
2019-01-19T22:58:13.967Z,-5.82
2019-01-19T23:00:59.838Z,-5.81
2019-01-19T23:03:33.950Z,-5.88
2019-01-19T23:06:04.723Z,-5.94
2019-01-19T23:08:35.329Z,-5.88
2019-01-19T23:11:05.978Z,-5.93
2019-01-19T23:13:36.492Z,-5.84
2019-01-19T23:16:07.454Z,-5.86
2019-01-19T23:18:38.081Z,-5.87
2019-01-19T23:21:08.650Z,-5.78
2019-01-19T23:23:39.182Z,-5.85
2019-01-19T23:26:09.946Z,-5.81
2019-01-19T23:28:40.359Z,-5.82
2019-01-19T23:31:10.800Z,-5.73
2019-01-19T23:33:41.320Z,-5.72
2019-01-19T23:36:11.845Z,-5.82
2019-01-19T23:38:42.320Z,-5.78
2019-01-19T23:41:12.848Z,-5.85
2019-01-19T23:43:43.428Z,-5.74
2019-01-19T23:46:13.994Z,-5.74
2019-01-19T23:48:44.548Z,-5.87
2019-01-19T23:51:15.103Z,-5.79
2019-01-19T23:53:45.790Z,-5.78
2019-01-19T23:56:16.373Z,-5.78
2019-01-19T23:58:47.018Z,-5.78
